sensor_id;sensor_type;location;lat;lon;timestamp;pressure;altitude;pressure_sealevel;temperature;humidity
47530;BME280;33272;51.922;7.730;2022-07-29T00:01:48;100901.31;;;18.48;64.19
47530;BME280;33272;51.922;7.730;2022-07-29T00:04:15;100901.16;;;18.45;64.23
47530;BME280;33272;51.922;7.730;2022-07-29T00:06:42;100901.91;;;18.42;64.57
47530;BME280;33272;51.922;7.730;2022-07-29T00:09:09;100897.47;;;18.40;64.66
47530;BME280;33272;51.922;7.730;2022-07-29T00:11:37;100898.31;;;18.39;64.41
47530;BME280;33272;51.922;7.730;2022-07-29T00:14:04;100887.78;;;18.36;65.04
47530;BME280;33272;51.922;7.730;2022-07-29T00:16:33;100887.66;;;18.33;64.57
47530;BME280;33272;51.922;7.730;2022-07-29T00:19:00;100882.34;;;18.29;64.70
47530;BME280;33272;51.922;7.730;2022-07-29T00:21:27;100877.00;;;18.26;65.03
47530;BME280;33272;51.922;7.730;2022-07-29T00:23:54;100873.44;;;18.24;65.25
47530;BME280;33272;51.922;7.730;2022-07-29T00:26:21;100864.66;;;18.21;65.15
47530;BME280;33272;51.922;7.730;2022-07-29T00:28:48;100862.91;;;18.20;65.42
47530;BME280;33272;51.922;7.730;2022-07-29T00:31:15;100861.88;;;18.16;65.42
47530;BME280;33272;51.922;7.730;2022-07-29T00:33:43;100859.16;;;18.13;65.49
47530;BME280;33272;51.922;7.730;2022-07-29T00:36:10;100857.22;;;18.09;65.70
47530;BME280;33272;51.922;7.730;2022-07-29T00:38:36;100850.13;;;18.05;66.02
47530;BME280;33272;51.922;7.730;2022-07-29T00:41:04;100853.41;;;18.01;65.93
47530;BME280;33272;51.922;7.730;2022-07-29T00:43:31;100848.81;;;17.95;66.21
47530;BME280;33272;51.922;7.730;2022-07-29T00:45:58;100855.56;;;17.92;66.50
47530;BME280;33272;51.922;7.730;2022-07-29T00:48:25;100850.09;;;17.86;66.65
47530;BME280;33272;51.922;7.730;2022-07-29T00:50:53;100849.09;;;17.82;66.68
47530;BME280;33272;51.922;7.730;2022-07-29T00:53:21;100846.25;;;17.77;67.12
47530;BME280;33272;51.922;7.730;2022-07-29T00:55:49;100850.47;;;17.75;67.48
47530;BME280;33272;51.922;7.730;2022-07-29T00:58:16;100849.34;;;17.70;67.89
47530;BME280;33272;51.922;7.730;2022-07-29T01:00:43;100843.97;;;17.66;68.11
47530;BME280;33272;51.922;7.730;2022-07-29T01:03:10;100847.31;;;17.63;68.17
47530;BME280;33272;51.922;7.730;2022-07-29T01:05:38;100855.72;;;17.59;68.33
47530;BME280;33272;51.922;7.730;2022-07-29T01:08:08;100835.78;;;17.56;68.80
47530;BME280;33272;51.922;7.730;2022-07-29T01:10:37;100838.13;;;17.52;68.75
47530;BME280;33272;51.922;7.730;2022-07-29T01:13:05;100827.78;;;17.52;68.68
47530;BME280;33272;51.922;7.730;2022-07-29T01:15:33;100829.44;;;17.50;68.91
47530;BME280;33272;51.922;7.730;2022-07-29T01:18:10;100824.16;;;17.48;68.99
47530;BME280;33272;51.922;7.730;2022-07-29T01:21:13;100819.66;;;17.44;69.12
47530;BME280;33272;51.922;7.730;2022-07-29T01:24:00;100808.34;;;17.42;69.09
47530;BME280;33272;51.922;7.730;2022-07-29T01:26:45;100798.00;;;17.42;69.33
47530;BME280;33272;51.922;7.730;2022-07-29T01:29:23;100800.56;;;17.42;69.36
47530;BME280;33272;51.922;7.730;2022-07-29T01:31:56;100812.69;;;17.43;68.98
47530;BME280;33272;51.922;7.730;2022-07-29T01:34:31;100803.31;;;17.45;69.48
47530;BME280;33272;51.922;7.730;2022-07-29T01:37:08;100801.56;;;17.44;69.52
47530;BME280;33272;51.922;7.730;2022-07-29T01:39:39;100800.72;;;17.45;69.52
47530;BME280;33272;51.922;7.730;2022-07-29T01:42:15;100798.13;;;17.45;69.63
47530;BME280;33272;51.922;7.730;2022-07-29T01:44:54;100797.31;;;17.46;69.57
47530;BME280;33272;51.922;7.730;2022-07-29T01:47:28;100788.63;;;17.44;69.82
47530;BME280;33272;51.922;7.730;2022-07-29T01:50:00;100797.13;;;17.42;70.08
47530;BME280;33272;51.922;7.730;2022-07-29T01:52:34;100789.19;;;17.38;70.14
47530;BME280;33272;51.922;7.730;2022-07-29T01:55:07;100792.63;;;17.37;70.66
47530;BME280;33272;51.922;7.730;2022-07-29T01:57:38;100790.81;;;17.36;70.53
47530;BME280;33272;51.922;7.730;2022-07-29T02:00:09;100780.47;;;17.36;70.57
47530;BME280;33272;51.922;7.730;2022-07-29T02:02:39;100776.06;;;17.34;70.74
47530;BME280;33272;51.922;7.730;2022-07-29T02:05:12;100776.06;;;17.34;69.98
47530;BME280;33272;51.922;7.730;2022-07-29T02:07:41;100778.56;;;17.32;70.87
47530;BME280;33272;51.922;7.730;2022-07-29T02:10:11;100777.69;;;17.32;71.00
47530;BME280;33272;51.922;7.730;2022-07-29T02:12:40;100775.91;;;17.31;71.02
47530;BME280;33272;51.922;7.730;2022-07-29T02:15:11;100780.19;;;17.30;70.97
47530;BME280;33272;51.922;7.730;2022-07-29T02:17:45;100778.41;;;17.29;70.92
47530;BME280;33272;51.922;7.730;2022-07-29T02:20:13;100780.13;;;17.29;71.20
47530;BME280;33272;51.922;7.730;2022-07-29T02:22:41;100776.56;;;17.27;71.04
47530;BME280;33272;51.922;7.730;2022-07-29T02:25:11;100777.28;;;17.24;71.38
47530;BME280;33272;51.922;7.730;2022-07-29T02:27:40;100776.34;;;17.22;71.51
47530;BME280;33272;51.922;7.730;2022-07-29T02:30:10;100772.75;;;17.19;71.53
47530;BME280;33272;51.922;7.730;2022-07-29T02:32:40;100767.47;;;17.17;71.70
47530;BME280;33272;51.922;7.730;2022-07-29T02:35:09;100762.16;;;17.14;71.64
47530;BME280;33272;51.922;7.730;2022-07-29T02:37:40;100762.16;;;17.14;71.72
47530;BME280;33272;51.922;7.730;2022-07-29T02:40:11;100763.72;;;17.10;71.70
47530;BME280;33272;51.922;7.730;2022-07-29T02:42:39;100755.06;;;17.10;72.13
47530;BME280;33272;51.922;7.730;2022-07-29T02:45:10;100751.53;;;17.08;72.12
47530;BME280;33272;51.922;7.730;2022-07-29T02:47:42;100757.53;;;17.07;72.01
47530;BME280;33272;51.922;7.730;2022-07-29T02:50:15;100764.41;;;17.06;72.09
47530;BME280;33272;51.922;7.730;2022-07-29T02:52:48;100762.59;;;17.05;71.82
47530;BME280;33272;51.922;7.730;2022-07-29T02:55:24;100755.66;;;17.04;71.83
47530;BME280;33272;51.922;7.730;2022-07-29T02:57:58;100760.84;;;17.04;72.22
47530;BME280;33272;51.922;7.730;2022-07-29T03:00:31;100753.97;;;17.05;72.18
47530;BME280;33272;51.922;7.730;2022-07-29T03:03:06;100746.06;;;17.02;72.34
47530;BME280;33272;51.922;7.730;2022-07-29T03:05:34;100746.88;;;17.01;72.46
47530;BME280;33272;51.922;7.730;2022-07-29T03:08:04;100746.00;;;17.00;72.33
47530;BME280;33272;51.922;7.730;2022-07-29T03:10:32;100745.03;;;16.98;72.68
47530;BME280;33272;51.922;7.730;2022-07-29T03:13:00;100745.75;;;16.96;72.57
47530;BME280;33272;51.922;7.730;2022-07-29T03:15:29;100755.16;;;16.94;72.83
47530;BME280;33272;51.922;7.730;2022-07-29T03:17:58;100758.53;;;16.92;72.79
47530;BME280;33272;51.922;7.730;2022-07-29T03:20:26;100756.63;;;16.88;72.96
47530;BME280;33272;51.922;7.730;2022-07-29T03:22:53;100755.50;;;16.83;73.64
47530;BME280;33272;51.922;7.730;2022-07-29T03:25:21;100762.16;;;16.78;73.84
47530;BME280;33272;51.922;7.730;2022-07-29T03:27:48;100754.13;;;16.74;73.83
47530;BME280;33272;51.922;7.730;2022-07-29T03:30:16;100756.50;;;16.69;74.06
47530;BME280;33272;51.922;7.730;2022-07-29T03:32:45;100756.34;;;16.66;74.00
47530;BME280;33272;51.922;7.730;2022-07-29T03:35:18;100752.78;;;16.64;73.97
47530;BME280;33272;51.922;7.730;2022-07-29T03:37:45;100751.84;;;16.62;74.07
47530;BME280;33272;51.922;7.730;2022-07-29T03:40:18;100752.63;;;16.61;73.94
47530;BME280;33272;51.922;7.730;2022-07-29T03:42:47;100748.28;;;16.60;74.31
47530;BME280;33272;51.922;7.730;2022-07-29T03:45:18;100748.22;;;16.58;74.18
47530;BME280;33272;51.922;7.730;2022-07-29T03:47:51;100744.66;;;16.56;74.60
47530;BME280;33272;51.922;7.730;2022-07-29T03:50:20;100745.56;;;16.57;74.39
47530;BME280;33272;51.922;7.730;2022-07-29T03:52:48;100741.22;;;16.56;74.60
47530;BME280;33272;51.922;7.730;2022-07-29T03:55:16;100742.97;;;16.57;74.43
47530;BME280;33272;51.922;7.730;2022-07-29T03:57:45;100743.94;;;16.59;74.64
47530;BME280;33272;51.922;7.730;2022-07-29T04:00:14;100744.88;;;16.61;74.66
47530;BME280;33272;51.922;7.730;2022-07-29T04:02:43;100751.09;;;16.64;74.64
47530;BME280;33272;51.922;7.730;2022-07-29T04:05:16;100753.03;;;16.68;74.46
47530;BME280;33272;51.922;7.730;2022-07-29T04:07:44;100755.78;;;16.72;74.50
47530;BME280;33272;51.922;7.730;2022-07-29T04:10:11;100755.94;;;16.75;74.69
47530;BME280;33272;51.922;7.730;2022-07-29T04:12:38;100750.94;;;16.78;74.79
47530;BME280;33272;51.922;7.730;2022-07-29T04:15:06;100749.44;;;16.83;74.59
47530;BME280;33272;51.922;7.730;2022-07-29T04:17:34;100753.06;;;16.86;74.62
47530;BME280;33272;51.922;7.730;2022-07-29T04:20:01;100749.84;;;16.90;74.24
47530;BME280;33272;51.922;7.730;2022-07-29T04:22:29;100745.75;;;16.96;74.03
47530;BME280;33272;51.922;7.730;2022-07-29T04:24:56;100750.28;;;17.00;73.78
47530;BME280;33272;51.922;7.730;2022-07-29T04:27:23;100746.16;;;17.03;73.96
47530;BME280;33272;51.922;7.730;2022-07-29T04:29:50;100747.09;;;17.05;73.89
47530;BME280;33272;51.922;7.730;2022-07-29T04:32:18;100741.19;;;17.08;73.59
47530;BME280;33272;51.922;7.730;2022-07-29T04:34:45;100737.81;;;17.09;73.62
47530;BME280;33272;51.922;7.730;2022-07-29T04:37:12;100741.31;;;17.11;73.72
47530;BME280;33272;51.922;7.730;2022-07-29T04:39:41;100743.25;;;17.15;73.47
47530;BME280;33272;51.922;7.730;2022-07-29T04:42:08;100740.88;;;17.20;73.29
47530;BME280;33272;51.922;7.730;2022-07-29T04:44:35;100744.50;;;17.23;73.26
47530;BME280;33272;51.922;7.730;2022-07-29T04:47:02;100743.91;;;17.29;72.50
47530;BME280;33272;51.922;7.730;2022-07-29T04:49:29;100741.50;;;17.33;72.86
47530;BME280;33272;51.922;7.730;2022-07-29T04:51:56;100744.38;;;17.40;72.56
47530;BME280;33272;51.922;7.730;2022-07-29T04:54:23;100742.91;;;17.45;72.43
47530;BME280;33272;51.922;7.730;2022-07-29T04:56:52;100745.97;;;17.55;72.36
47530;BME280;33272;51.922;7.730;2022-07-29T04:59:19;100749.88;;;17.65;72.12
47530;BME280;33272;51.922;7.730;2022-07-29T05:01:45;100752.09;;;17.75;72.32
47530;BME280;33272;51.922;7.730;2022-07-29T05:04:12;100751.84;;;17.89;71.94
47530;BME280;33272;51.922;7.730;2022-07-29T05:06:39;100747.97;;;17.98;71.83
47530;BME280;33272;51.922;7.730;2022-07-29T05:09:08;100752.81;;;18.10;71.28
47530;BME280;33272;51.922;7.730;2022-07-29T05:11:35;100758.44;;;18.21;71.20
47530;BME280;33272;51.922;7.730;2022-07-29T05:14:03;100759.72;;;18.30;70.49
47530;BME280;33272;51.922;7.730;2022-07-29T05:16:30;100757.53;;;18.40;70.28
47530;BME280;33272;51.922;7.730;2022-07-29T05:18:57;100764.84;;;18.50;70.17
47530;BME280;33272;51.922;7.730;2022-07-29T05:21:24;100767.78;;;18.58;69.58
47530;BME280;33272;51.922;7.730;2022-07-29T05:23:51;100772.41;;;18.65;69.91
47530;BME280;33272;51.922;7.730;2022-07-29T05:26:18;100774.41;;;18.72;69.38
47530;BME280;33272;51.922;7.730;2022-07-29T05:28:45;100765.16;;;18.77;69.22
47530;BME280;33272;51.922;7.730;2022-07-29T05:31:14;100776.75;;;18.85;69.22
47530;BME280;33272;51.922;7.730;2022-07-29T05:33:41;100773.59;;;18.92;68.83
47530;BME280;33272;51.922;7.730;2022-07-29T05:36:08;100768.00;;;19.04;68.94
47530;BME280;33272;51.922;7.730;2022-07-29T05:38:36;100778.72;;;19.13;68.44
47530;BME280;33272;51.922;7.730;2022-07-29T05:41:03;100773.91;;;19.22;68.25
47530;BME280;33272;51.922;7.730;2022-07-29T05:43:31;100784.72;;;19.33;68.20
47530;BME280;33272;51.922;7.730;2022-07-29T05:45:58;100783.38;;;19.43;67.79
47530;BME280;33272;51.922;7.730;2022-07-29T05:48:26;100788.09;;;19.53;68.11
47530;BME280;33272;51.922;7.730;2022-07-29T05:50:54;100794.47;;;19.61;68.31
47530;BME280;33272;51.922;7.730;2022-07-29T05:53:21;100793.81;;;19.67;67.78
47530;BME280;33272;51.922;7.730;2022-07-29T05:55:48;100796.53;;;19.70;67.69
47530;BME280;33272;51.922;7.730;2022-07-29T05:58:15;100804.69;;;19.79;67.24
47530;BME280;33272;51.922;7.730;2022-07-29T06:00:43;100804.81;;;19.82;67.79
47530;BME280;33272;51.922;7.730;2022-07-29T06:03:10;100812.59;;;19.82;67.63
47530;BME280;33272;51.922;7.730;2022-07-29T06:05:38;100819.59;;;19.83;67.01
47530;BME280;33272;51.922;7.730;2022-07-29T06:08:06;100824.81;;;19.85;67.56
47530;BME280;33272;51.922;7.730;2022-07-29T06:10:34;100817.75;;;19.81;68.02
47530;BME280;33272;51.922;7.730;2022-07-29T06:13:01;100821.72;;;19.71;68.62
47530;BME280;33272;51.922;7.730;2022-07-29T06:15:28;100820.47;;;19.63;68.68
47530;BME280;33272;51.922;7.730;2022-07-29T06:17:55;100827.22;;;19.58;69.36
47530;BME280;33272;51.922;7.730;2022-07-29T06:20:22;100828.91;;;19.57;69.13
47530;BME280;33272;51.922;7.730;2022-07-29T06:22:52;100826.31;;;19.57;69.31
47530;BME280;33272;51.922;7.730;2022-07-29T06:25:19;100824.78;;;19.62;69.26
47530;BME280;33272;51.922;7.730;2022-07-29T06:27:46;100814.69;;;19.68;69.15
47530;BME280;33272;51.922;7.730;2022-07-29T06:30:13;100822.88;;;19.79;69.47
47530;BME280;33272;51.922;7.730;2022-07-29T06:32:41;100822.28;;;19.86;68.83
47530;BME280;33272;51.922;7.730;2022-07-29T06:35:09;100814.28;;;20.04;68.78
47530;BME280;33272;51.922;7.730;2022-07-29T06:37:36;100815.19;;;20.29;68.52
47530;BME280;33272;51.922;7.730;2022-07-29T06:40:06;100825.13;;;20.65;67.24
47530;BME280;33272;51.922;7.730;2022-07-29T06:42:51;100830.81;;;21.04;66.36
47530;BME280;33272;51.922;7.730;2022-07-29T06:45:18;100839.03;;;21.43;65.49
47530;BME280;33272;51.922;7.730;2022-07-29T06:47:45;100839.13;;;21.46;64.40
47530;BME280;33272;51.922;7.730;2022-07-29T06:50:12;100838.34;;;21.49;64.48
47530;BME280;33272;51.922;7.730;2022-07-29T06:52:39;100834.00;;;21.49;64.29
47530;BME280;33272;51.922;7.730;2022-07-29T06:55:09;100834.06;;;21.51;63.88
47530;BME280;33272;51.922;7.730;2022-07-29T06:57:36;100831.50;;;21.52;64.04
47530;BME280;33272;51.922;7.730;2022-07-29T07:00:05;100829.06;;;21.57;63.88
47530;BME280;33272;51.922;7.730;2022-07-29T07:02:32;100823.16;;;21.63;63.35
47530;BME280;33272;51.922;7.730;2022-07-29T07:04:59;100822.22;;;21.61;63.32
47530;BME280;33272;51.922;7.730;2022-07-29T07:07:26;100822.25;;;21.62;63.65
47530;BME280;33272;51.922;7.730;2022-07-29T07:09:53;100833.59;;;21.64;63.36
47530;BME280;33272;51.922;7.730;2022-07-29T07:12:21;100837.97;;;21.65;62.89
47530;BME280;33272;51.922;7.730;2022-07-29T07:14:48;100837.88;;;21.62;63.14
47530;BME280;33272;51.922;7.730;2022-07-29T07:17:15;100843.16;;;21.64;63.52
47530;BME280;33272;51.922;7.730;2022-07-29T07:19:43;100843.53;;;21.76;63.23
47530;BME280;33272;51.922;7.730;2022-07-29T07:22:10;100843.06;;;21.91;62.88
47530;BME280;33272;51.922;7.730;2022-07-29T07:24:37;100850.53;;;22.07;62.78
47530;BME280;33272;51.922;7.730;2022-07-29T07:27:04;100837.97;;;22.23;62.19
47530;BME280;33272;51.922;7.730;2022-07-29T07:29:33;100835.03;;;22.42;61.63
47530;BME280;33272;51.922;7.730;2022-07-29T07:32:00;100829.63;;;22.67;61.12
47530;BME280;33272;51.922;7.730;2022-07-29T07:34:27;100831.81;;;22.85;60.51
47530;BME280;33272;51.922;7.730;2022-07-29T07:36:55;100838.31;;;23.01;60.18
47530;BME280;33272;51.922;7.730;2022-07-29T07:39:22;100834.44;;;23.20;60.06
47530;BME280;33272;51.922;7.730;2022-07-29T07:41:50;100841.06;;;23.42;59.68
47530;BME280;33272;51.922;7.730;2022-07-29T07:44:17;100835.44;;;23.62;59.42
47530;BME280;33272;51.922;7.730;2022-07-29T07:46:45;100843.66;;;23.78;58.93
47530;BME280;33272;51.922;7.730;2022-07-29T07:49:12;100841.31;;;23.91;58.89
47530;BME280;33272;51.922;7.730;2022-07-29T07:51:39;100842.59;;;24.11;58.48
47530;BME280;33272;51.922;7.730;2022-07-29T07:54:07;100841.22;;;24.30;58.59
47530;BME280;33272;51.922;7.730;2022-07-29T07:56:34;100840.59;;;24.40;57.83
47530;BME280;33272;51.922;7.730;2022-07-29T07:59:01;100843.44;;;24.51;57.58
47530;BME280;33272;51.922;7.730;2022-07-29T08:01:28;100845.34;;;24.60;57.01
47530;BME280;33272;51.922;7.730;2022-07-29T08:03:56;100840.13;;;24.61;57.15
47530;BME280;33272;51.922;7.730;2022-07-29T08:06:23;100828.88;;;24.65;57.17
47530;BME280;33272;51.922;7.730;2022-07-29T08:08:51;100832.31;;;24.64;56.95
47530;BME280;33272;51.922;7.730;2022-07-29T08:11:18;100825.34;;;24.63;57.01
47530;BME280;33272;51.922;7.730;2022-07-29T08:13:46;100827.91;;;24.62;56.53
47530;BME280;33272;51.922;7.730;2022-07-29T08:16:13;100828.81;;;24.62;56.86
47530;BME280;33272;51.922;7.730;2022-07-29T08:18:43;100834.19;;;24.71;56.65
47530;BME280;33272;51.922;7.730;2022-07-29T08:21:13;100832.25;;;24.61;56.18
47530;BME280;33272;51.922;7.730;2022-07-29T08:23:42;100840.13;;;24.61;56.34
47530;BME280;33272;51.922;7.730;2022-07-29T08:26:15;100831.03;;;24.42;56.61
47530;BME280;33272;51.922;7.730;2022-07-29T08:28:44;100827.19;;;24.25;56.72
47530;BME280;33272;51.922;7.730;2022-07-29T08:31:12;100829.53;;;24.11;56.73
47530;BME280;33272;51.922;7.730;2022-07-29T08:33:39;100832.63;;;23.92;57.26
47530;BME280;33272;51.922;7.730;2022-07-29T08:36:06;100825.13;;;23.68;57.76
47530;BME280;33272;51.922;7.730;2022-07-29T08:38:35;100827.31;;;23.49;58.10
47530;BME280;33272;51.922;7.730;2022-07-29T08:41:02;100832.47;;;23.46;58.43
47530;BME280;33272;51.922;7.730;2022-07-29T08:43:29;100836.38;;;23.27;58.84
47530;BME280;33272;51.922;7.730;2022-07-29T08:45:57;100831.78;;;23.17;58.97
47530;BME280;33272;51.922;7.730;2022-07-29T08:48:25;100830.69;;;23.09;59.50
47530;BME280;33272;51.922;7.730;2022-07-29T08:50:55;100836.94;;;23.14;58.92
47530;BME280;33272;51.922;7.730;2022-07-29T08:53:26;100838.47;;;23.07;59.30
47530;BME280;33272;51.922;7.730;2022-07-29T08:55:56;100830.13;;;23.21;59.12
47530;BME280;33272;51.922;7.730;2022-07-29T08:58:24;100833.19;;;23.41;59.12
47530;BME280;33272;51.922;7.730;2022-07-29T09:00:54;100837.28;;;23.67;58.60
47530;BME280;33272;51.922;7.730;2022-07-29T09:03:24;100835.09;;;23.86;58.00
47530;BME280;33272;51.922;7.730;2022-07-29T09:05:51;100829.19;;;23.94;57.89
47530;BME280;33272;51.922;7.730;2022-07-29T09:08:19;100827.97;;;24.19;57.64
47530;BME280;33272;51.922;7.730;2022-07-29T09:10:47;100835.13;;;24.29;57.54
47530;BME280;33272;51.922;7.730;2022-07-29T09:13:16;100843.84;;;24.30;56.57
47530;BME280;33272;51.922;7.730;2022-07-29T09:15:43;100843.91;;;24.33;57.40
47530;BME280;33272;51.922;7.730;2022-07-29T09:18:10;100836.13;;;24.36;57.11
47530;BME280;33272;51.922;7.730;2022-07-29T09:20:38;100840.41;;;24.31;57.28
47530;BME280;33272;51.922;7.730;2022-07-29T09:23:33;100838.03;;;23.99;57.52
47530;BME280;33272;51.922;7.730;2022-07-29T09:26:05;100837.13;;;23.99;57.42
47530;BME280;33272;51.922;7.730;2022-07-29T09:28:34;100838.56;;;23.85;56.74
47530;BME280;33272;51.922;7.730;2022-07-29T09:31:08;100834.13;;;23.80;58.21
47530;BME280;33272;51.922;7.730;2022-07-29T09:33:35;100828.84;;;23.77;57.86
47530;BME280;33272;51.922;7.730;2022-07-29T09:36:07;100823.38;;;23.68;58.18
47530;BME280;33272;51.922;7.730;2022-07-29T09:38:36;100825.94;;;23.67;58.18
47530;BME280;33272;51.922;7.730;2022-07-29T09:41:05;100824.38;;;23.73;57.96
47530;BME280;33272;51.922;7.730;2022-07-29T09:43:35;100827.88;;;23.74;57.66
47530;BME280;33272;51.922;7.730;2022-07-29T09:46:12;100819.28;;;23.79;57.48
47530;BME280;33272;51.922;7.730;2022-07-29T09:48:39;100822.13;;;23.90;57.71
47530;BME280;33272;51.922;7.730;2022-07-29T09:51:17;100818.69;;;23.93;55.86
47530;BME280;33272;51.922;7.730;2022-07-29T09:53:44;100821.59;;;24.07;57.59
47530;BME280;33272;51.922;7.730;2022-07-29T09:56:11;100827.97;;;24.19;56.99
47530;BME280;33272;51.922;7.730;2022-07-29T09:58:41;100835.00;;;24.23;56.76
47530;BME280;33272;51.922;7.730;2022-07-29T10:01:08;100837.75;;;24.29;57.12
47530;BME280;33272;51.922;7.730;2022-07-29T10:03:50;100826.41;;;24.31;55.92
47530;BME280;33272;51.922;7.730;2022-07-29T10:06:18;100825.00;;;24.45;56.77
47530;BME280;33272;51.922;7.730;2022-07-29T10:08:45;100824.56;;;24.69;56.02
47530;BME280;33272;51.922;7.730;2022-07-29T10:11:15;100820.59;;;24.92;56.36
47530;BME280;33272;51.922;7.730;2022-07-29T10:13:46;100816.72;;;25.19;55.23
47530;BME280;33272;51.922;7.730;2022-07-29T10:16:15;100822.25;;;25.40;54.88
47530;BME280;33272;51.922;7.730;2022-07-29T10:18:44;100815.22;;;25.36;54.92
47530;BME280;33272;51.922;7.730;2022-07-29T10:21:12;100811.91;;;25.50;54.50
47530;BME280;33272;51.922;7.730;2022-07-29T10:23:40;100811.06;;;25.52;54.30
47530;BME280;33272;51.922;7.730;2022-07-29T10:26:08;100805.13;;;25.64;54.21
47530;BME280;33272;51.922;7.730;2022-07-29T10:28:36;100812.41;;;25.85;53.87
47530;BME280;33272;51.922;7.730;2022-07-29T10:31:06;100812.78;;;26.16;52.98
47530;BME280;33272;51.922;7.730;2022-07-29T10:33:48;100808.72;;;26.44;51.80
47530;BME280;33272;51.922;7.730;2022-07-29T10:36:27;100811.59;;;26.67;51.80
47530;BME280;33272;51.922;7.730;2022-07-29T10:39:08;100810.91;;;26.88;51.20
47530;BME280;33272;51.922;7.730;2022-07-29T10:42:02;100812.78;;;27.04;48.12
47530;BME280;33272;51.922;7.730;2022-07-29T10:44:32;100810.19;;;27.07;50.44
47530;BME280;33272;51.922;7.730;2022-07-29T10:47:01;100813.56;;;26.92;50.54
47530;BME280;33272;51.922;7.730;2022-07-29T10:49:28;100813.28;;;26.58;50.29
47530;BME280;33272;51.922;7.730;2022-07-29T10:51:59;100818.94;;;26.19;51.27
47530;BME280;33272;51.922;7.730;2022-07-29T10:54:47;100817.00;;;26.01;49.23
47530;BME280;33272;51.922;7.730;2022-07-29T10:57:19;100814.66;;;25.59;52.51
47530;BME280;33272;51.922;7.730;2022-07-29T10:59:49;100808.69;;;25.11;54.93
47530;BME280;33272;51.922;7.730;2022-07-29T11:02:45;100816.63;;;24.64;56.96
47530;BME280;33272;51.922;7.730;2022-07-29T11:05:17;100813.88;;;24.14;57.80
47530;BME280;33272;51.922;7.730;2022-07-29T11:08:18;100815.97;;;23.87;59.47
47530;BME280;33272;51.922;7.730;2022-07-29T11:10:47;100813.03;;;23.73;58.93
47530;BME280;33272;51.922;7.730;2022-07-29T11:13:46;100803.78;;;23.11;62.56
47530;BME280;33272;51.922;7.730;2022-07-29T11:16:14;100814.97;;;23.06;60.98
47530;BME280;33272;51.922;7.730;2022-07-29T11:19:21;100812.41;;;22.74;64.94
47530;BME280;33272;51.922;7.730;2022-07-29T11:21:48;100810.41;;;22.65;64.83
47530;BME280;33272;51.922;7.730;2022-07-29T11:24:19;100820.53;;;22.53;64.61
47530;BME280;33272;51.922;7.730;2022-07-29T11:27:12;100815.97;;;22.14;67.67
47530;BME280;33272;51.922;7.730;2022-07-29T11:29:48;100817.44;;;22.05;66.48
47530;BME280;33272;51.922;7.730;2022-07-29T11:32:18;100817.38;;;22.03;66.50
47530;BME280;33272;51.922;7.730;2022-07-29T11:34:48;100827.22;;;21.83;67.37
47530;BME280;33272;51.922;7.730;2022-07-29T11:37:21;100825.75;;;21.63;68.24
47530;BME280;33272;51.922;7.730;2022-07-29T11:40:15;100818.47;;;21.52;70.34
47530;BME280;33272;51.922;7.730;2022-07-29T11:42:44;100827.38;;;21.59;67.60
47530;BME280;33272;51.922;7.730;2022-07-29T11:45:20;100825.03;;;21.40;70.16
47530;BME280;33272;51.922;7.730;2022-07-29T11:47:55;100826.00;;;21.43;70.07
47530;BME280;33272;51.922;7.730;2022-07-29T11:50:34;100828.38;;;21.36;69.52
47530;BME280;33272;51.922;7.730;2022-07-29T11:53:10;100825.13;;;21.43;67.94
47530;BME280;33272;51.922;7.730;2022-07-29T11:55:39;100819.81;;;21.40;67.82
47530;BME280;33272;51.922;7.730;2022-07-29T11:58:06;100826.53;;;21.33;68.79
47530;BME280;33272;51.922;7.730;2022-07-29T12:00:36;100816.59;;;21.21;69.43
47530;BME280;33272;51.922;7.730;2022-07-29T12:03:06;100817.09;;;21.10;71.11
47530;BME280;33272;51.922;7.730;2022-07-29T12:05:41;100818.31;;;20.94;75.31
47530;BME280;33272;51.922;7.730;2022-07-29T12:08:14;100811.63;;;20.75;77.09
47530;BME280;33272;51.922;7.730;2022-07-29T12:10:46;100817.75;;;20.77;73.25
47530;BME280;33272;51.922;7.730;2022-07-29T12:13:14;100812.28;;;20.69;73.54
47530;BME280;33272;51.922;7.730;2022-07-29T12:15:42;100809.41;;;20.62;74.33
47530;BME280;33272;51.922;7.730;2022-07-29T12:18:19;100811.09;;;20.59;75.07
47530;BME280;33272;51.922;7.730;2022-07-29T12:20:48;100811.72;;;20.52;76.05
47530;BME280;33272;51.922;7.730;2022-07-29T12:23:22;100807.16;;;20.47;77.62
47530;BME280;33272;51.922;7.730;2022-07-29T12:25:49;100807.03;;;20.44;77.23
47530;BME280;33272;51.922;7.730;2022-07-29T12:28:16;100804.34;;;20.41;78.12
47530;BME280;33272;51.922;7.730;2022-07-29T12:30:46;100806.28;;;20.46;77.51
47530;BME280;33272;51.922;7.730;2022-07-29T12:33:21;100801.19;;;20.49;77.33
47530;BME280;33272;51.922;7.730;2022-07-29T12:35:52;100799.53;;;20.51;78.46
47530;BME280;33272;51.922;7.730;2022-07-29T12:38:20;100796.22;;;20.55;77.66
47530;BME280;33272;51.922;7.730;2022-07-29T12:40:49;100795.38;;;20.56;77.67
47530;BME280;33272;51.922;7.730;2022-07-29T12:43:18;100797.03;;;20.54;77.69
47530;BME280;33272;51.922;7.730;2022-07-29T12:45:48;100796.22;;;20.55;77.58
47530;BME280;33272;51.922;7.730;2022-07-29T12:48:16;100797.91;;;20.55;77.94
47530;BME280;33272;51.922;7.730;2022-07-29T12:50:59;100797.88;;;20.53;78.49
47530;BME280;33272;51.922;7.730;2022-07-29T12:53:27;100811.88;;;20.57;80.16
47530;BME280;33272;51.922;7.730;2022-07-29T12:55:56;100806.78;;;20.60;80.64
47530;BME280;33272;51.922;7.730;2022-07-29T12:58:33;100807.72;;;20.62;81.55
47530;BME280;33272;51.922;7.730;2022-07-29T13:01:10;100806.03;;;20.64;82.70
47530;BME280;33272;51.922;7.730;2022-07-29T13:03:51;100799.31;;;20.71;81.47
47530;BME280;33272;51.922;7.730;2022-07-29T13:06:34;100802.31;;;20.81;81.12